Terminal Aerodrome Forecast
Issued by NWS

Home | Current Version | Previous Version | Text Only | Print | Product List | Glossary On
Versions: 1 2 3 4 5 6 7 8 9 10 11 12 13 14 15 16 17 18 19 20 21 22 23 24 25
000
FTUS41 KPBZ 280529
TAFFKL
TAF
KFKL 280529Z 2806/2906 26006KT 6SM -RA BKN025 OVC100
      TEMPO 2806/2808 3SM -TSRA BKN015CB OVC060
     FM280800 24006KT 4SM BR BKN070
     FM281400 36008KT P6SM SCT070
     FM282300 04005KT P6SM SKC
      AMD LTD TO CLD VIS AND WIND=

USA.gov is the U.S. government's official web portal to all federal, state and local government web resources and services.